createdAt,value
2022-09-04T00:03:18.220Z,100828.28
2022-09-04T00:08:37.448Z,100835.28
2022-09-04T00:13:58.999Z,100841.53
2022-09-04T00:19:09.613Z,100844.78
2022-09-04T00:24:17.490Z,100853.44
2022-09-04T00:29:21.758Z,100850.28
2022-09-04T00:34:56.140Z,100852.34
2022-09-04T00:40:03.502Z,100858.22
2022-09-04T00:45:28.606Z,100861.09
2022-09-04T00:50:52.261Z,100858.59
2022-09-04T00:56:23.117Z,100859.63
2022-09-04T01:01:28.095Z,100866.59
2022-09-04T01:06:51.757Z,100862.34
2022-09-04T01:12:12.753Z,100876.44
2022-09-04T01:17:27.473Z,100877.34
2022-09-04T01:22:32.744Z,100870.31
2022-09-04T01:27:59.683Z,100874.59
2022-09-04T01:33:24.934Z,100877.41
2022-09-04T01:38:45.843Z,100879.88
2022-09-04T01:43:49.029Z,100884.84
2022-09-04T01:49:03.972Z,100885.63
2022-09-04T01:54:24.014Z,100897.53
2022-09-04T02:00:09.308Z,100897.84
2022-09-04T02:05:14.636Z,100904.03
2022-09-04T02:10:56.117Z,100904.91
2022-09-04T02:16:00.987Z,100906.78
2022-09-04T02:21:27.931Z,100913.50
2022-09-04T02:26:37.153Z,100924.13
2022-09-04T02:31:42.185Z,100923.81
2022-09-04T02:36:53.221Z,100923.00
2022-09-04T02:42:18.740Z,100920.31
2022-09-04T02:47:46.274Z,100927.25
2022-09-04T02:53:01.151Z,100930.41
2022-09-04T02:58:24.851Z,100928.00
2022-09-04T03:03:56.495Z,100935.22
2022-09-04T03:09:06.877Z,100932.31
2022-09-04T03:14:43.143Z,100929.22
2022-09-04T03:19:59.493Z,100937.16
2022-09-04T03:25:20.539Z,100934.97
2022-09-04T03:30:23.313Z,100942.06
2022-09-04T03:35:38.384Z,100942.50
2022-09-04T03:40:46.213Z,100939.72
2022-09-04T03:46:10.545Z,100945.38
2022-09-04T03:51:27.241Z,100946.03
2022-09-04T03:56:47.470Z,100954.41
2022-09-04T04:02:10.739Z,100963.56
2022-09-04T04:07:24.311Z,100969.25
2022-09-04T04:12:49.818Z,100971.25
2022-09-04T04:18:15.355Z,100972.94
2022-09-04T04:23:18.270Z,100970.53
2022-09-04T04:28:47.944Z,100976.81
2022-09-04T04:34:19.173Z,100989.44
2022-09-04T04:39:44.605Z,100987.81
2022-09-04T04:45:26.507Z,100996.53
2022-09-04T04:50:50.737Z,101006.91
2022-09-04T04:56:19.346Z,101003.66
2022-09-04T05:01:33.680Z,101020.31
2022-09-04T05:06:41.925Z,101014.63
2022-09-04T05:11:54.420Z,101020.97
2022-09-04T05:17:46.692Z,101028.22
2022-09-04T05:23:01.963Z,101035.50
2022-09-04T05:28:21.899Z,101055.97
2022-09-04T05:33:49.370Z,101057.09
2022-09-04T05:39:10.651Z,101066.00
2022-09-04T05:44:22.151Z,101080.47
2022-09-04T05:49:54.133Z,101079.31
2022-09-04T05:55:14.793Z,101084.31
2022-09-04T06:00:20.884Z,101093.22
2022-09-04T06:06:08.818Z,101106.81
2022-09-04T06:11:50.688Z,101103.72
2022-09-04T06:17:22.323Z,101109.81
2022-09-04T06:22:53.870Z,101118.06
2022-09-04T06:28:06.782Z,101121.97
2022-09-04T06:33:30.112Z,101124.38
2022-09-04T06:39:23.364Z,101128.28
2022-09-04T06:45:02.953Z,101146.34
2022-09-04T06:50:31.837Z,101140.72
2022-09-04T06:55:57.817Z,101151.34
2022-09-04T07:01:37.656Z,101149.47
2022-09-04T07:06:51.810Z,101162.94
2022-09-04T07:12:27.377Z,101163.59
2022-09-04T07:18:13.522Z,101171.47
2022-09-04T07:23:26.898Z,101171.72
2022-09-04T07:29:25.761Z,101189.31
2022-09-04T07:34:46.881Z,101185.03
2022-09-04T07:40:08.504Z,101187.25
2022-09-04T07:45:34.028Z,101187.47
2022-09-04T07:50:39.886Z,101191.00
2022-09-04T07:55:45.418Z,101193.38
2022-09-04T08:00:58.593Z,101199.13
2022-09-04T08:06:15.716Z,101194.69
2022-09-04T08:11:26.376Z,101207.78
2022-09-04T08:16:41.603Z,101214.75
2022-09-04T08:21:44.649Z,101223.22
2022-09-04T08:27:10.328Z,101236.38
2022-09-04T08:32:40.037Z,101227.78
2022-09-04T08:37:56.777Z,101231.59
2022-09-04T08:43:11.722Z,101233.69
2022-09-04T08:48:39.095Z,101241.13
2022-09-04T08:53:59.314Z,101242.53
2022-09-04T08:59:26.729Z,101251.13
2022-09-04T09:04:49.782Z,101251.13
2022-09-04T09:10:26.585Z,101249.41
2022-09-04T09:15:52.650Z,101242.09
2022-09-04T09:21:09.464Z,101240.41
2022-09-04T09:26:24.659Z,101240.72
2022-09-04T09:31:28.918Z,101232.78
2022-09-04T09:37:11.923Z,101240.75
2022-09-04T09:42:43.258Z,101232.69
2022-09-04T09:48:11.649Z,101232.38
2022-09-04T09:53:23.581Z,101233.66
2022-09-04T09:58:47.593Z,101225.81
2022-09-04T10:04:01.787Z,101220.72
2022-09-04T10:09:26.746Z,101231.44
2022-09-04T10:14:53.506Z,101227.66
2022-09-04T10:20:25.643Z,101221.75
2022-09-04T10:25:33.565Z,101226.19
2022-09-04T10:31:00.569Z,101225.63
2022-09-04T10:36:21.547Z,101238.00
2022-09-04T10:42:02.413Z,101233.34
2022-09-04T10:47:23.045Z,101219.88
2022-09-04T10:52:49.104Z,101214.38
2022-09-04T10:58:23.331Z,101217.34
2022-09-04T11:03:54.172Z,101210.81
2022-09-04T11:09:11.112Z,101222.69
2022-09-04T11:14:24.716Z,101219.97
2022-09-04T11:19:32.710Z,101213.56
2022-09-04T11:25:03.055Z,101208.22
2022-09-04T11:30:41.042Z,101212.66
2022-09-04T11:36:04.728Z,101201.69
2022-09-04T11:41:31.164Z,101202.75
2022-09-04T11:47:07.298Z,101200.97
2022-09-04T11:52:23.440Z,101210.72
2022-09-04T11:58:08.461Z,101212.03
2022-09-04T12:03:51.449Z,101197.97
2022-09-04T12:09:28.844Z,101203.72
2022-09-04T12:15:08.631Z,101197.13
2022-09-04T12:20:29.950Z,101204.56
2022-09-04T12:25:41.575Z,101202.75
2022-09-04T12:30:53.317Z,101205.56
2022-09-04T12:36:07.386Z,101195.94
2022-09-04T12:41:39.136Z,101197.56
2022-09-04T12:46:50.098Z,101194.66
2022-09-04T12:52:12.990Z,101207.94
2022-09-04T12:57:29.540Z,101208.31
2022-09-04T13:02:49.363Z,101206.63
2022-09-04T13:08:17.142Z,101207.88
2022-09-04T13:13:45.074Z,101210.06
2022-09-04T13:19:19.742Z,101208.69
2022-09-04T13:24:57.563Z,101214.50
2022-09-04T13:30:13.891Z,101208.31
2022-09-04T13:35:41.247Z,101216.56
2022-09-04T13:41:18.163Z,101208.28
2022-09-04T13:46:37.936Z,101207.16
2022-09-04T13:51:45.007Z,101221.91
2022-09-04T13:57:08.042Z,101215.84
2022-09-04T14:02:14.461Z,101216.63
2022-09-04T14:07:28.194Z,101213.13
2022-09-04T14:12:36.140Z,101219.25
2022-09-04T14:18:14.482Z,101206.44
2022-09-04T14:23:53.032Z,101209.00
2022-09-04T14:29:17.999Z,101212.13
2022-09-04T14:34:28.438Z,101203.06
2022-09-04T14:39:43.995Z,101202.09
2022-09-04T14:45:27.643Z,101204.44
2022-09-04T14:50:33.906Z,101208.84
2022-09-04T14:56:02.896Z,101197.50
2022-09-04T15:01:17.762Z,101197.91
2022-09-04T15:06:31.371Z,101198.06
2022-09-04T15:11:36.183Z,101200.25
2022-09-04T15:16:45.596Z,101195.69
2022-09-04T15:21:52.835Z,101183.38
2022-09-04T15:26:57.446Z,101180.03
2022-09-04T15:32:14.103Z,101188.06
2022-09-04T15:37:28.403Z,101180.00
2022-09-04T15:42:39.780Z,101177.03
2022-09-04T15:48:30.007Z,101174.28
2022-09-04T15:53:37.361Z,101176.75
2022-09-04T15:59:24.237Z,101167.66
2022-09-04T16:04:50.046Z,101172.06
2022-09-04T16:10:02.289Z,101172.03
2022-09-04T16:15:16.164Z,101171.94
2022-09-04T16:20:20.831Z,101177.25
2022-09-04T16:25:39.580Z,101172.03
2022-09-04T16:30:46.638Z,101173.66
2022-09-04T16:35:50.860Z,101179.78
2022-09-04T16:41:01.310Z,101171.34
2022-09-04T16:46:15.181Z,101180.66
2022-09-04T16:51:41.462Z,101181.03
2022-09-04T16:56:52.536Z,101180.13
2022-09-04T17:02:22.480Z,101171.28
2022-09-04T17:07:37.479Z,101162.94
2022-09-04T17:12:50.330Z,101160.69
2022-09-04T17:17:54.183Z,101162.94
2022-09-04T17:29:03.906Z,101156.31
2022-09-04T17:29:16.889Z,101161.47
2022-09-04T17:40:37.771Z,101157.16
2022-09-04T17:40:38.518Z,101157.47
2022-09-04T17:45:50.224Z,101156.88
2022-09-04T17:50:55.954Z,101158.75
2022-09-04T17:56:12.533Z,101153.47
2022-09-04T18:01:26.466Z,101157.13
2022-09-04T18:06:41.335Z,101167.16
2022-09-04T18:11:59.863Z,101162.63
2022-09-04T18:17:28.326Z,101173.75
2022-09-04T18:22:41.088Z,101177.72
2022-09-04T18:28:11.895Z,101189.94
2022-09-04T18:37:11.476Z,101193.75
2022-09-04T18:39:09.202Z,101200.47
2022-09-04T18:50:26.112Z,101216.28
2022-09-04T18:50:34.795Z,101214.72
2022-09-04T18:55:10.874Z,101222.47
2022-09-04T19:00:23.243Z,101220.34
2022-09-04T19:05:45.153Z,101227.78
2022-09-04T19:10:51.495Z,101228.06
2022-09-04T19:16:07.450Z,101231.03
2022-09-04T19:21:14.228Z,101236.63
2022-09-04T19:26:32.873Z,101236.59
2022-09-04T19:31:43.158Z,101233.31
2022-09-04T19:36:53.892Z,101232.81
2022-09-04T19:46:00.060Z,101238.75
2022-09-04T19:48:05.160Z,101244.34
2022-09-04T19:53:37.828Z,101244.88
2022-09-04T19:58:46.546Z,101252.78
2022-09-04T20:03:50.462Z,101250.16
2022-09-04T20:09:12.840Z,101253.72
2022-09-04T20:14:14.916Z,101249.97
2022-09-04T20:19:28.235Z,101255.34
2022-09-04T20:24:42.267Z,101266.97
2022-09-04T20:30:11.380Z,101265.97
2022-09-04T20:35:32.618Z,101265.53
2022-09-04T20:40:37.320Z,101263.19
2022-09-04T20:49:43.013Z,101270.13
2022-09-04T20:52:53.160Z,101273.31
2022-09-04T20:58:52.332Z,101266.78
2022-09-04T21:03:22.694Z,101265.91
2022-09-04T21:08:02.964Z,101270.38
2022-09-04T21:13:15.687Z,101273.72
2022-09-04T21:18:44.991Z,101280.44
2022-09-04T21:24:03.766Z,101278.03
2022-09-04T21:29:51.886Z,101278.91
2022-09-04T21:35:15.710Z,101286.00
2022-09-04T21:40:51.388Z,101283.22
2022-09-04T21:46:31.453Z,101276.47
2022-09-04T21:51:59.590Z,101286.81
2022-09-04T22:02:32.575Z,101280.22
2022-09-04T22:03:35.050Z,101289.38
2022-09-04T22:13:31.370Z,101285.34
2022-09-04T22:14:31.406Z,101287.13
2022-09-04T22:19:54.500Z,101290.53
2022-09-04T22:25:19.338Z,101287.41
2022-09-04T22:30:22.322Z,101288.31
2022-09-04T22:35:57.870Z,101296.78
2022-09-04T22:41:32.441Z,101306.94
2022-09-04T22:46:52.332Z,101307.97
2022-09-04T22:52:42.029Z,101308.56
2022-09-04T22:58:04.939Z,101312.81
2022-09-04T23:03:35.702Z,101314.69
2022-09-04T23:13:48.065Z,101321.53
2022-09-04T23:14:08.320Z,101317.56
2022-09-04T23:22:40.958Z,101323.25
2022-09-04T23:26:42.222Z,101330.63
2022-09-04T23:31:00.607Z,101331.25
2022-09-04T23:36:33.646Z,101325.38
2022-09-04T23:41:53.350Z,101325.09
2022-09-04T23:47:01.169Z,101324.66
2022-09-04T23:52:06.731Z,101312.78
2022-09-04T23:57:26.287Z,101324.13
